All
Donald Gammons Meml Airport (Lyles, TN) 76TN Weather
There is no TAF data available at 76TN or any nearby airports.
There is no METAR data available at 76TN. Showing METAR data for M02 (16 mi NW).
Recent M02 METAR history (no data for 76TN)
| Date | Time (CDT) | Flight Rules | Wind Dir. | Speed | Type | Height AGL (ft) | Visibility | Temp (°C) | Temp (°F) | Dew Point (°C) | Dew Point (°F) | Rel. Humid. | Pressure | Density Altitude | Remarks |
|---|---|---|---|---|---|---|---|---|---|---|---|---|---|---|---|
| 05-May | 06:15AM | VFR | 190° | 7 kt | 10 miles | 15° | 59° | 9° | 48° | 67% | 29.84 in Hg | 972 ft | |||
| 05-May | 05:55AM | VFR | 190° | 8 kt | 10 miles | 14° | 57° | 9° | 48° | 72% | 29.84 in Hg | 852 ft | |||
| 05-May | 05:35AM | VFR | 200° | 6 kt | 10 miles | 14° | 57° | 9° | 48° | 72% | 29.84 in Hg | 852 ft | |||
| 05-May | 05:15AM | VFR | 200° | 6 kt | 10 miles | 15° | 59° | 9° | 48° | 67% | 29.84 in Hg | 972 ft | |||
| 05-May | 04:55AM | VFR | 190° | 7 kt | 10 miles | 15° | 59° | 9° | 48° | 67% | 29.83 in Hg | 982 ft | |||
| 05-May | 04:35AM | VFR | 190° | 6 kt | 10 miles | 14° | 57° | 9° | 48° | 72% | 29.83 in Hg | 862 ft | |||
| 05-May | 04:15AM | VFR | 190° | 6 kt | 10 miles | 15° | 59° | 9° | 48° | 67% | 29.83 in Hg | 982 ft | |||
| 05-May | 03:55AM | VFR | 190° | 6 kt | 10 miles | 14° | 57° | 9° | 48° | 72% | 29.83 in Hg | 862 ft | |||
| 05-May | 03:15AM | VFR | 200° | 8 kt | 10 miles | 15° | 59° | 9° | 48° | 67% | 29.82 in Hg | 992 ft | |||
| 05-May | 02:55AM | VFR | 200° | 9 kt | 10 miles | 15° | 59° | 9° | 48° | 67% | 29.82 in Hg | 992 ft | |||
| 05-May | 02:15AM | VFR | 200° | 9 kt | 10 miles | 15° | 59° | 9° | 48° | 67% | 29.83 in Hg | 982 ft | |||
| 05-May | 01:55AM | VFR | 200° | 8 kt | 10 miles | 16° | 60° | 9° | 48° | 63% | 29.83 in Hg | 1,102 ft | |||
| 05-May | 01:35AM | VFR | 200° | 9 kt | 10 miles | 16° | 60° | 9° | 48° | 63% | 29.84 in Hg | 1,092 ft | |||
| 05-May | 01:15AM | VFR | 200° | 9 kt | 10 miles | 16° | 60° | 9° | 48° | 63% | 29.85 in Hg | 1,082 ft | |||
| 05-May | 12:55AM | VFR | 200° | 8 kt | 10 miles | 16° | 60° | 9° | 48° | 63% | 29.85 in Hg | 1,082 ft | |||
| 05-May | 12:15AM | VFR | 200° | 8 kt | 10 miles | 17° | 62° | 9° | 48° | 59% | 29.86 in Hg | 1,192 ft | |||
| 04-May | 11:55PM | VFR | 200° | 8 kt | 10 miles | 17° | 62° | 9° | 48° | 59% | 29.85 in Hg | 1,202 ft | |||
| 04-May | 11:35PM | VFR | 210° | 7 kt | 10 miles | 17° | 62° | 9° | 48° | 59% | 29.85 in Hg | 1,202 ft | |||
| 04-May | 11:15PM | VFR | 200° | 8 kt | 10 miles | 18° | 64° | 9° | 48° | 56% | 29.84 in Hg | 1,332 ft | |||
| 04-May | 10:55PM | VFR | 210° | 8 kt | 10 miles | 18° | 64° | 9° | 48° | 56% | 29.85 in Hg | 1,322 ft | |||
| 04-May | 10:15PM | VFR | 210° | 9 kt | 10 miles | 19° | 66° | 8° | 46° | 49% | 29.84 in Hg | 1,452 ft | |||
| 04-May | 09:55PM | VFR | 210° | 10 kt | 10 miles | 19° | 66° | 8° | 46° | 49% | 29.83 in Hg | 1,462 ft | |||
| 04-May | 09:35PM | VFR | 200° | 10 kt | 10 miles | 19° | 66° | 8° | 46° | 49% | 29.83 in Hg | 1,462 ft | |||
| 04-May | 09:15PM | VFR | 200° | 9 kt | 10 miles | 20° | 68° | 8° | 46° | 46% | 29.83 in Hg | 1,582 ft |
Login
| Your browser is unsupported. upgrade your browser |
